createdAt,value
2023-03-24T00:00:26.855Z,8.60
2023-03-24T00:01:49.710Z,6.40
2023-03-24T00:02:52.858Z,7.90
2023-03-24T00:03:55.812Z,11.20
2023-03-24T00:04:58.798Z,8.30
2023-03-24T00:06:03.756Z,8.80
2023-03-24T00:07:06.484Z,8.40
2023-03-24T00:08:09.328Z,7.20
2023-03-24T00:09:12.064Z,5.80
2023-03-24T00:10:18.161Z,8.90
2023-03-24T00:11:21.425Z,7.30
2023-03-24T00:12:25.387Z,11.00
2023-03-24T00:13:29.345Z,8.50
2023-03-24T00:14:32.094Z,6.20
2023-03-24T00:15:36.273Z,8.20
2023-03-24T00:16:42.907Z,6.90
2023-03-24T00:17:50.393Z,7.80
2023-03-24T00:18:54.304Z,9.70
2023-03-24T00:19:58.079Z,7.40
2023-03-24T00:21:00.898Z,5.70
2023-03-24T00:22:04.291Z,6.30
2023-03-24T00:23:07.054Z,7.10
2023-03-24T00:24:11.725Z,6.90
2023-03-24T00:25:15.474Z,8.50
2023-03-24T00:26:18.269Z,6.10
2023-03-24T00:27:21.175Z,6.40
2023-03-24T00:28:24.015Z,6.30
2023-03-24T00:29:27.468Z,7.30
2023-03-24T00:30:30.409Z,6.30
2023-03-24T00:31:33.361Z,9.00
2023-03-24T00:32:38.777Z,8.80
2023-03-24T00:33:43.897Z,6.10
2023-03-24T00:34:46.658Z,6.40
2023-03-24T00:35:49.708Z,7.00
2023-03-24T00:36:52.547Z,6.80
2023-03-24T00:37:55.445Z,7.60
2023-03-24T00:38:58.291Z,8.00
2023-03-24T00:40:01.123Z,7.80
2023-03-24T00:41:07.777Z,6.40
2023-03-24T00:42:10.924Z,7.10
2023-03-24T00:43:13.716Z,7.90
2023-03-24T00:44:20.401Z,6.70
2023-03-24T00:45:24.488Z,6.50
2023-03-24T00:46:27.757Z,5.90
2023-03-24T00:47:36.801Z,7.10
2023-03-24T00:48:42.564Z,6.60
2023-03-24T00:49:45.348Z,6.60
2023-03-24T00:50:49.557Z,5.00
2023-03-24T00:51:52.366Z,7.30
2023-03-24T00:52:56.110Z,7.90
2023-03-24T00:53:59.371Z,8.40
2023-03-24T00:55:05.067Z,8.20
2023-03-24T00:56:09.212Z,7.60
2023-03-24T00:57:21.650Z,8.10
2023-03-24T00:58:25.909Z,5.60
2023-03-24T00:59:29.800Z,7.30
2023-03-24T01:00:32.696Z,6.20
2023-03-24T01:01:36.719Z,8.20
2023-03-24T01:02:40.183Z,7.10
2023-03-24T01:03:48.332Z,5.80
2023-03-24T01:04:56.561Z,6.80
2023-03-24T01:06:04.560Z,8.00
2023-03-24T01:07:08.869Z,5.80
2023-03-24T01:08:11.647Z,7.80
2023-03-24T01:09:14.497Z,8.10
2023-03-24T01:10:17.864Z,5.60
2023-03-24T01:11:24.289Z,6.20
2023-03-24T01:12:32.533Z,5.20
2023-03-24T01:13:35.341Z,6.90
2023-03-24T01:14:38.092Z,6.10
2023-03-24T01:15:41.536Z,6.80
2023-03-24T01:16:44.356Z,7.60
2023-03-24T01:17:48.732Z,7.90
2023-03-24T01:18:52.712Z,8.80
2023-03-24T01:19:56.193Z,6.30
2023-03-24T01:20:59.046Z,6.20
2023-03-24T01:22:02.589Z,6.50
2023-03-24T01:23:05.965Z,5.20
2023-03-24T01:24:09.365Z,8.10
2023-03-24T01:25:16.605Z,5.50
2023-03-24T01:26:19.886Z,5.70
2023-03-24T01:27:23.170Z,7.30
2023-03-24T01:28:27.246Z,5.60
2023-03-24T01:29:30.513Z,7.40
2023-03-24T01:30:33.449Z,6.60
2023-03-24T01:31:36.645Z,6.30
2023-03-24T01:32:39.545Z,6.20
2023-03-24T01:33:42.370Z,8.10
2023-03-24T01:34:45.130Z,8.40
2023-03-24T01:35:48.599Z,7.00
2023-03-24T01:36:51.464Z,6.10
2023-03-24T01:37:54.243Z,7.60
2023-03-24T01:38:58.530Z,10.40
2023-03-24T01:40:02.285Z,9.40
2023-03-24T01:41:06.469Z,6.30
2023-03-24T01:42:18.966Z,8.30
2023-03-24T01:43:27.227Z,10.70
2023-03-24T01:44:38.243Z,5.60
2023-03-24T01:45:59.643Z,10.70
2023-03-24T01:47:06.145Z,13.40
2023-03-24T01:48:17.049Z,13.80
2023-03-24T01:49:21.069Z,16.10
2023-03-24T01:50:24.531Z,15.50
2023-03-24T01:51:49.228Z,14.20
2023-03-24T01:52:52.257Z,14.60
2023-03-24T01:54:22.021Z,16.00
2023-03-24T01:55:29.855Z,16.50
2023-03-24T01:56:36.916Z,10.70
2023-03-24T01:57:47.697Z,17.40
2023-03-24T01:58:56.552Z,13.40
2023-03-24T02:00:12.719Z,17.10
2023-03-24T02:01:34.438Z,8.90
2023-03-24T02:03:07.968Z,8.80
2023-03-24T02:04:16.136Z,10.20
2023-03-24T02:05:19.645Z,9.60
2023-03-24T02:06:26.111Z,13.70
2023-03-24T02:07:52.295Z,11.30
2023-03-24T02:08:58.693Z,9.10
2023-03-24T02:10:13.467Z,9.70
2023-03-24T02:11:16.519Z,8.40
2023-03-24T02:12:25.833Z,27.70
2023-03-24T02:13:29.365Z,21.90
2023-03-24T02:14:32.421Z,22.80
2023-03-24T02:15:43.148Z,15.60
2023-03-24T02:16:57.778Z,18.70
2023-03-24T02:18:25.499Z,12.50
2023-03-24T02:20:09.733Z,18.30
2023-03-24T02:21:36.038Z,27.50
2023-03-24T02:23:19.199Z,28.30
2023-03-24T02:24:34.094Z,19.40
2023-03-24T02:25:55.833Z,17.40
2023-03-24T02:27:20.464Z,21.60
2023-03-24T02:28:48.627Z,15.80
2023-03-24T02:30:04.215Z,16.80
2023-03-24T02:31:29.672Z,18.30
2023-03-24T02:33:27.285Z,21.80
2023-03-24T02:34:56.349Z,22.20
2023-03-24T02:36:08.572Z,25.80
2023-03-24T02:37:18.957Z,28.20
2023-03-24T02:38:35.020Z,31.60
2023-03-24T02:40:22.647Z,14.40
2023-03-24T02:41:55.995Z,14.90
2023-03-24T02:43:29.574Z,16.90
2023-03-24T02:45:17.163Z,18.90
2023-03-24T02:47:01.252Z,19.70
2023-03-24T02:48:21.120Z,18.60
2023-03-24T02:51:00.983Z,15.20
2023-03-24T02:52:12.711Z,16.60
2023-03-24T02:53:39.550Z,11.40
2023-03-24T02:55:01.853Z,10.90
2023-03-24T02:56:16.960Z,8.50
2023-03-24T02:57:42.985Z,7.90
2023-03-24T02:59:10.394Z,7.40
2023-03-24T03:00:22.388Z,5.70
2023-03-24T03:02:06.364Z,5.70
2023-03-24T03:03:38.369Z,9.00
2023-03-24T03:04:50.199Z,7.20
2023-03-24T03:05:58.808Z,7.80
2023-03-24T03:07:10.198Z,7.50
2023-03-24T03:08:17.510Z,5.40
2023-03-24T03:09:22.755Z,6.60
2023-03-24T03:10:31.118Z,6.50
2023-03-24T03:11:34.243Z,5.10
2023-03-24T03:12:39.334Z,7.10
2023-03-24T03:13:52.541Z,7.20
2023-03-24T03:15:02.616Z,6.30
2023-03-24T03:16:11.044Z,6.20
2023-03-24T03:17:18.785Z,7.80
2023-03-24T03:18:43.773Z,6.70
2023-03-24T03:19:55.521Z,6.60
2023-03-24T03:21:04.586Z,10.60
2023-03-24T03:22:21.065Z,7.50
2023-03-24T03:23:28.507Z,5.60
2023-03-24T03:24:37.351Z,5.90
2023-03-24T03:25:46.386Z,5.00
2023-03-24T03:26:50.091Z,6.60
2023-03-24T03:27:56.828Z,7.40
2023-03-24T03:29:06.017Z,6.00
2023-03-24T03:30:20.200Z,6.30
2023-03-24T03:31:30.097Z,8.60
2023-03-24T03:32:39.167Z,7.30
2023-03-24T03:34:00.044Z,6.00
2023-03-24T03:35:14.686Z,7.50
2023-03-24T03:36:23.789Z,6.50
2023-03-24T03:37:52.804Z,4.90
2023-03-24T03:39:10.223Z,5.50
2023-03-24T03:40:20.692Z,5.90
2023-03-24T03:41:26.263Z,6.30
2023-03-24T03:42:29.289Z,10.40
2023-03-24T03:43:33.718Z,6.70
2023-03-24T03:44:36.695Z,6.00
2023-03-24T03:45:39.654Z,7.40
2023-03-24T03:46:43.142Z,4.60
2023-03-24T03:47:48.435Z,8.20
2023-03-24T03:48:51.583Z,5.50
2023-03-24T03:49:54.920Z,5.20
2023-03-24T03:51:10.302Z,6.20
2023-03-24T03:52:17.669Z,6.80
2023-03-24T03:53:27.113Z,7.60
2023-03-24T03:54:31.846Z,5.00
2023-03-24T03:55:35.577Z,7.10
2023-03-24T03:56:39.668Z,5.10
2023-03-24T03:57:55.700Z,5.90
2023-03-24T03:59:07.738Z,5.70
2023-03-24T04:00:16.986Z,5.60
2023-03-24T04:01:34.266Z,5.80
2023-03-24T04:02:58.710Z,6.10
2023-03-24T04:04:09.531Z,6.00
2023-03-24T04:05:35.259Z,6.30
2023-03-24T04:06:53.912Z,10.90
2023-03-24T04:08:23.288Z,7.10
2023-03-24T04:10:15.456Z,7.60
2023-03-24T04:11:32.174Z,6.10
2023-03-24T04:13:09.702Z,6.50
2023-03-24T04:14:51.917Z,9.80
2023-03-24T04:16:47.104Z,5.70
2023-03-24T04:18:11.776Z,6.60
2023-03-24T04:19:46.110Z,5.80
2023-03-24T04:21:06.317Z,7.70
2023-03-24T04:23:28.418Z,7.90
2023-03-24T04:24:50.497Z,7.10
2023-03-24T04:26:26.705Z,7.10
2023-03-24T04:27:47.830Z,7.20
2023-03-24T04:28:58.144Z,8.10
2023-03-24T04:30:06.332Z,7.00
2023-03-24T04:31:19.043Z,7.00
2023-03-24T04:32:28.604Z,9.40
2023-03-24T04:33:40.315Z,7.20
2023-03-24T04:34:50.930Z,6.10
2023-03-24T04:36:42.453Z,8.40
2023-03-24T04:38:18.619Z,7.60
2023-03-24T04:39:29.019Z,9.40
2023-03-24T04:40:36.923Z,7.60
2023-03-24T04:41:43.156Z,5.40
2023-03-24T04:42:54.645Z,6.30
2023-03-24T04:44:01.300Z,7.10
2023-03-24T04:45:07.115Z,7.30
2023-03-24T04:46:10.304Z,6.10
2023-03-24T04:47:38.616Z,6.70
2023-03-24T04:48:57.538Z,7.90
2023-03-24T04:50:11.442Z,7.00
2023-03-24T04:51:16.985Z,6.10
2023-03-24T04:52:29.418Z,6.10
2023-03-24T04:53:32.574Z,6.20
2023-03-24T04:54:35.521Z,7.10
2023-03-24T04:55:49.982Z,10.60
2023-03-24T04:57:04.504Z,6.00
2023-03-24T04:58:22.285Z,7.80
2023-03-24T04:59:26.185Z,6.30
2023-03-24T05:00:29.572Z,7.30
2023-03-24T05:01:32.805Z,9.50
2023-03-24T05:02:53.673Z,8.10
2023-03-24T05:04:02.240Z,7.40
2023-03-24T05:05:05.465Z,7.90
2023-03-24T05:06:16.931Z,8.40
2023-03-24T05:07:21.416Z,7.80
2023-03-24T05:08:26.259Z,13.30
2023-03-24T05:09:31.575Z,8.90
2023-03-24T05:10:35.979Z,7.30
2023-03-24T05:11:40.383Z,10.30
2023-03-24T05:12:44.104Z,8.80
2023-03-24T05:13:49.500Z,7.20
2023-03-24T05:14:52.383Z,11.90
2023-03-24T05:15:55.463Z,8.40
2023-03-24T05:17:05.866Z,8.60
2023-03-24T05:18:10.104Z,11.50
2023-03-24T05:19:13.139Z,8.80
2023-03-24T05:20:16.532Z,8.70
2023-03-24T05:21:22.217Z,8.80
2023-03-24T05:22:25.326Z,10.30
2023-03-24T05:23:28.097Z,9.10
2023-03-24T05:24:31.459Z,11.90
2023-03-24T05:25:35.295Z,7.40
2023-03-24T05:26:38.054Z,12.40
2023-03-24T05:27:48.583Z,12.00
2023-03-24T05:28:57.119Z,10.30
2023-03-24T05:29:59.957Z,10.20
2023-03-24T05:31:03.424Z,8.00
2023-03-24T05:32:26.077Z,12.20
2023-03-24T05:33:28.969Z,9.50
2023-03-24T05:34:32.137Z,12.70
2023-03-24T05:35:49.213Z,9.80
2023-03-24T05:36:52.210Z,10.20
2023-03-24T05:37:57.026Z,8.50
2023-03-24T05:38:59.899Z,10.60
2023-03-24T05:40:11.963Z,9.70
2023-03-24T05:41:25.373Z,8.80
2023-03-24T05:42:28.610Z,10.30
2023-03-24T05:43:32.055Z,10.30
2023-03-24T05:44:43.785Z,9.60
2023-03-24T05:45:51.432Z,9.40
2023-03-24T05:47:05.798Z,12.40
2023-03-24T05:48:08.710Z,8.50
2023-03-24T05:49:31.798Z,7.90
2023-03-24T05:50:34.826Z,8.60
2023-03-24T05:51:37.836Z,8.60
2023-03-24T05:52:43.290Z,10.10
2023-03-24T05:54:11.549Z,10.30
2023-03-24T05:55:19.447Z,8.80
2023-03-24T05:56:23.658Z,8.70
2023-03-24T05:57:44.801Z,11.10
2023-03-24T05:58:57.567Z,9.40
2023-03-24T06:00:09.507Z,14.10
2023-03-24T06:01:19.090Z,10.20
2023-03-24T06:02:25.312Z,12.30
2023-03-24T06:03:34.701Z,15.00
2023-03-24T06:04:46.718Z,11.40
2023-03-24T06:05:52.778Z,11.20
2023-03-24T06:06:59.014Z,13.00
2023-03-24T06:08:04.010Z,13.10
2023-03-24T06:09:09.146Z,12.30
2023-03-24T06:10:14.426Z,18.70
2023-03-24T06:11:21.604Z,12.90
2023-03-24T06:12:31.024Z,10.50
2023-03-24T06:13:37.957Z,12.50
2023-03-24T06:14:40.838Z,11.70
2023-03-24T06:15:48.041Z,11.30
2023-03-24T06:17:14.889Z,10.50
2023-03-24T06:18:18.865Z,10.80
2023-03-24T06:19:22.687Z,12.30
2023-03-24T06:20:50.793Z,12.90
2023-03-24T06:22:00.627Z,11.00
2023-03-24T06:23:05.453Z,15.70
2023-03-24T06:24:21.580Z,11.80
2023-03-24T06:25:28.470Z,11.90
2023-03-24T06:26:38.233Z,9.90
2023-03-24T06:27:47.871Z,10.40
2023-03-24T06:28:55.323Z,14.60
2023-03-24T06:29:59.468Z,11.50
2023-03-24T06:31:05.488Z,11.60
2023-03-24T06:32:11.006Z,12.60
2023-03-24T06:33:17.976Z,12.80
2023-03-24T06:34:22.248Z,14.30
2023-03-24T06:35:36.038Z,13.80
2023-03-24T06:36:42.364Z,14.90
2023-03-24T06:37:45.962Z,12.00
2023-03-24T06:38:51.525Z,11.80
2023-03-24T06:39:56.263Z,12.80
2023-03-24T06:41:04.653Z,12.90
2023-03-24T06:42:07.570Z,13.50
2023-03-24T06:43:10.775Z,14.50
2023-03-24T06:44:14.701Z,14.90
2023-03-24T06:45:17.998Z,14.70
2023-03-24T06:46:22.104Z,17.20
2023-03-24T06:47:25.065Z,11.20
2023-03-24T06:48:28.276Z,17.90
2023-03-24T06:49:37.298Z,9.10
2023-03-24T06:50:41.172Z,11.50
2023-03-24T06:51:45.401Z,11.80
2023-03-24T06:52:49.010Z,12.60
2023-03-24T06:53:53.929Z,12.60
2023-03-24T06:54:58.262Z,11.90
2023-03-24T06:56:02.510Z,13.60
2023-03-24T06:57:11.213Z,13.50
2023-03-24T06:58:34.538Z,11.00
2023-03-24T06:59:41.097Z,12.80
2023-03-24T07:00:46.739Z,11.10
2023-03-24T07:02:02.310Z,13.40
2023-03-24T07:03:09.086Z,10.00
2023-03-24T07:04:13.058Z,10.30
2023-03-24T07:05:29.501Z,11.70
2023-03-24T07:06:40.260Z,10.00
2023-03-24T07:08:28.036Z,10.10
2023-03-24T07:09:18.910Z,10.80
2023-03-24T07:10:21.836Z,9.30
2023-03-24T07:11:25.521Z,11.20
2023-03-24T07:12:31.170Z,9.50
2023-03-24T07:13:34.401Z,13.80
2023-03-24T07:14:39.896Z,9.10
2023-03-24T07:15:42.876Z,9.30
2023-03-24T07:16:46.285Z,10.30
2023-03-24T07:18:24.034Z,11.70
2023-03-24T07:19:33.742Z,10.50
2023-03-24T07:20:55.184Z,8.80
2023-03-24T07:21:59.023Z,10.50
2023-03-24T07:23:12.821Z,9.30
2023-03-24T07:24:32.404Z,8.10
2023-03-24T07:25:46.064Z,9.10
2023-03-24T07:26:53.303Z,7.70
2023-03-24T07:27:59.119Z,11.20
2023-03-24T07:29:01.926Z,6.50
2023-03-24T07:30:14.160Z,8.00
2023-03-24T07:31:20.338Z,8.60
2023-03-24T07:32:25.798Z,9.70
2023-03-24T07:33:28.676Z,9.30
2023-03-24T07:34:32.105Z,8.30
2023-03-24T07:35:35.427Z,6.80
2023-03-24T07:36:38.323Z,8.00
2023-03-24T07:37:42.978Z,10.70
2023-03-24T07:38:45.825Z,7.70
2023-03-24T07:39:56.028Z,9.80
2023-03-24T07:40:59.905Z,8.90
2023-03-24T07:42:04.368Z,7.60
2023-03-24T07:43:15.792Z,9.00
2023-03-24T07:44:37.390Z,7.00
2023-03-24T07:45:42.100Z,8.80
2023-03-24T07:46:45.452Z,6.30
2023-03-24T07:47:48.366Z,8.40
2023-03-24T07:48:51.406Z,6.90
2023-03-24T07:49:54.226Z,7.20
2023-03-24T07:50:57.232Z,9.40
2023-03-24T07:52:18.008Z,7.30
2023-03-24T07:53:25.022Z,7.00
2023-03-24T07:54:27.965Z,9.10
2023-03-24T07:55:31.079Z,12.90
2023-03-24T07:56:42.828Z,8.90
2023-03-24T07:57:47.567Z,8.70
2023-03-24T07:58:50.694Z,6.70
2023-03-24T08:00:17.909Z,8.60
2023-03-24T08:01:27.093Z,7.00
2023-03-24T08:02:30.669Z,8.20
2023-03-24T08:03:56.415Z,6.90
2023-03-24T08:05:23.374Z,6.90
2023-03-24T08:06:45.576Z,8.50
2023-03-24T08:07:53.466Z,7.30
2023-03-24T08:08:56.534Z,11.00
2023-03-24T08:09:59.293Z,7.30
2023-03-24T08:11:02.245Z,7.90
2023-03-24T08:12:17.392Z,7.40
2023-03-24T08:13:23.233Z,9.60
2023-03-24T08:14:26.379Z,10.20
2023-03-24T08:15:29.448Z,9.90
2023-03-24T08:16:32.242Z,7.40
2023-03-24T08:17:35.947Z,8.20
2023-03-24T08:18:39.073Z,9.30
2023-03-24T08:19:56.272Z,8.70
2023-03-24T08:21:02.329Z,12.40
2023-03-24T08:22:05.131Z,9.20
2023-03-24T08:23:08.489Z,9.70
2023-03-24T08:24:11.431Z,10.70
2023-03-24T08:25:14.794Z,8.50
2023-03-24T08:26:18.084Z,8.30
2023-03-24T08:27:20.832Z,9.80
2023-03-24T08:28:24.016Z,9.30
2023-03-24T08:29:26.789Z,9.20
2023-03-24T08:30:31.035Z,8.20
2023-03-24T08:31:35.833Z,11.10
2023-03-24T08:32:44.322Z,9.60
2023-03-24T08:33:47.233Z,9.50
2023-03-24T08:34:49.936Z,13.50
2023-03-24T08:35:57.550Z,14.30
2023-03-24T08:37:00.387Z,13.50
2023-03-24T08:38:06.670Z,11.50
2023-03-24T08:39:09.945Z,8.70
2023-03-24T08:40:19.566Z,10.50
2023-03-24T08:41:30.687Z,10.90
2023-03-24T08:42:33.523Z,10.20
2023-03-24T08:43:37.616Z,8.10
2023-03-24T08:44:40.521Z,8.90
2023-03-24T08:45:43.436Z,10.40
2023-03-24T08:46:46.249Z,8.70
2023-03-24T08:47:50.684Z,13.60
2023-03-24T08:48:53.471Z,8.80
2023-03-24T08:49:58.107Z,9.80
2023-03-24T08:51:00.887Z,10.10
2023-03-24T08:52:04.020Z,9.10
2023-03-24T08:53:07.610Z,9.60
2023-03-24T08:54:12.628Z,10.10
2023-03-24T08:55:16.730Z,11.10
2023-03-24T08:56:20.386Z,8.30
2023-03-24T08:57:23.260Z,9.60
2023-03-24T08:58:26.151Z,11.10
2023-03-24T08:59:29.054Z,10.30
2023-03-24T09:00:31.877Z,9.20
2023-03-24T09:01:35.399Z,11.10
2023-03-24T09:02:38.197Z,11.60
2023-03-24T09:03:41.470Z,11.00
2023-03-24T09:04:45.956Z,10.10
2023-03-24T09:05:49.245Z,10.80
2023-03-24T09:06:53.664Z,10.00
2023-03-24T09:07:56.603Z,10.10
2023-03-24T09:08:59.398Z,9.10
2023-03-24T09:10:02.792Z,16.10
2023-03-24T09:11:06.096Z,9.40
2023-03-24T09:12:09.861Z,9.50
2023-03-24T09:13:13.178Z,9.50
2023-03-24T09:14:16.123Z,9.90
2023-03-24T09:15:18.967Z,10.70
2023-03-24T09:17:26.249Z,7.30
2023-03-24T09:18:29.398Z,9.90
2023-03-24T09:19:32.163Z,9.00
2023-03-24T09:20:34.983Z,10.40
2023-03-24T09:21:38.527Z,8.70
2023-03-24T09:22:44.216Z,11.80
2023-03-24T09:23:47.051Z,7.00
2023-03-24T09:24:50.149Z,8.90
2023-03-24T09:25:53.902Z,10.50
2023-03-24T09:26:56.758Z,10.70
2023-03-24T09:27:59.559Z,9.00
2023-03-24T09:29:02.740Z,8.20
2023-03-24T09:30:06.966Z,9.00
2023-03-24T09:31:11.719Z,8.60
2023-03-24T09:32:14.529Z,7.80
2023-03-24T09:33:17.734Z,8.90
2023-03-24T09:34:21.520Z,7.00
2023-03-24T09:35:25.753Z,7.30
2023-03-24T09:36:30.070Z,6.90
2023-03-24T09:37:35.821Z,7.40
2023-03-24T09:38:38.589Z,6.70
2023-03-24T09:39:41.317Z,7.70
2023-03-24T09:40:45.037Z,11.00
2023-03-24T09:41:50.573Z,7.30
2023-03-24T09:43:34.903Z,9.90
2023-03-24T09:44:43.350Z,8.10
2023-03-24T09:45:57.599Z,6.90
2023-03-24T09:47:06.578Z,7.00
2023-03-24T09:48:18.554Z,7.10
2023-03-24T09:49:25.306Z,8.60
2023-03-24T09:50:34.982Z,7.10
2023-03-24T09:52:53.882Z,7.00
2023-03-24T09:54:02.664Z,6.90
2023-03-24T09:55:14.381Z,7.40
2023-03-24T09:56:20.838Z,8.30
2023-03-24T09:57:34.427Z,7.90
2023-03-24T09:58:41.525Z,7.00
2023-03-24T09:59:44.329Z,8.60
2023-03-24T10:00:47.377Z,7.20
2023-03-24T10:01:50.747Z,7.10
2023-03-24T10:02:57.633Z,7.30
2023-03-24T10:04:00.779Z,8.10
2023-03-24T10:05:13.282Z,6.80
2023-03-24T10:06:26.866Z,6.90
2023-03-24T10:08:09.415Z,7.40
2023-03-24T10:09:21.900Z,7.80
2023-03-24T10:10:36.709Z,7.50
2023-03-24T10:11:52.556Z,6.60
2023-03-24T10:13:05.210Z,8.10
2023-03-24T10:14:22.412Z,6.60
2023-03-24T10:15:49.143Z,7.30
2023-03-24T10:16:58.090Z,5.50
2023-03-24T10:18:05.303Z,7.50
2023-03-24T10:19:27.835Z,7.00
2023-03-24T10:20:41.292Z,6.90
2023-03-24T10:22:11.180Z,7.00
2023-03-24T10:23:31.466Z,9.60
2023-03-24T10:24:56.878Z,9.10
2023-03-24T10:26:14.354Z,7.20
2023-03-24T10:27:17.055Z,6.80
2023-03-24T10:28:38.389Z,7.90
2023-03-24T10:29:43.186Z,7.40
2023-03-24T10:30:49.533Z,7.00
2023-03-24T10:32:02.550Z,6.20
2023-03-24T10:33:05.493Z,6.90
2023-03-24T10:34:12.726Z,6.30
2023-03-24T10:35:21.514Z,5.70
2023-03-24T10:36:25.285Z,8.00
2023-03-24T10:37:31.016Z,6.30
2023-03-24T10:38:34.056Z,6.10
2023-03-24T10:39:44.921Z,5.50
2023-03-24T10:40:49.422Z,8.50
2023-03-24T10:41:54.751Z,5.70
2023-03-24T10:43:07.126Z,6.70
2023-03-24T10:44:14.117Z,4.90
2023-03-24T10:45:27.050Z,5.80
2023-03-24T10:46:32.113Z,7.10
2023-03-24T10:47:35.018Z,7.20
2023-03-24T10:48:44.682Z,5.40
2023-03-24T10:50:59.732Z,7.70
2023-03-24T10:52:09.108Z,5.80
2023-03-24T10:53:19.896Z,5.60
2023-03-24T10:54:25.533Z,6.60
2023-03-24T10:55:39.020Z,4.10
2023-03-24T10:56:52.067Z,6.50
2023-03-24T10:57:57.693Z,6.30
2023-03-24T10:59:00.493Z,6.00
2023-03-24T11:00:19.345Z,7.80
2023-03-24T11:01:27.327Z,5.10
2023-03-24T11:02:31.944Z,5.10
2023-03-24T11:03:37.854Z,6.10
2023-03-24T11:04:45.003Z,4.40
2023-03-24T11:05:47.981Z,7.70
2023-03-24T11:07:16.168Z,5.60
2023-03-24T11:08:28.754Z,6.80
2023-03-24T11:09:42.900Z,11.40
2023-03-24T11:10:46.520Z,6.60
2023-03-24T11:11:50.836Z,5.40
2023-03-24T11:12:53.521Z,6.90
2023-03-24T11:14:01.446Z,6.20
2023-03-24T11:15:21.774Z,6.90
2023-03-24T11:16:36.771Z,5.40
2023-03-24T11:17:39.664Z,5.40
2023-03-24T11:19:22.977Z,5.60
2023-03-24T11:20:39.389Z,6.30
2023-03-24T11:23:10.684Z,5.60
2023-03-24T11:24:17.131Z,5.10
2023-03-24T11:25:19.912Z,6.80
2023-03-24T11:26:37.487Z,6.10
2023-03-24T11:27:43.446Z,6.80
2023-03-24T11:28:47.237Z,8.00
2023-03-24T11:29:54.611Z,6.70
2023-03-24T11:30:58.153Z,6.70
2023-03-24T11:32:05.506Z,7.00
2023-03-24T11:33:19.165Z,7.10
2023-03-24T11:34:34.329Z,8.00
2023-03-24T11:35:42.107Z,7.00
2023-03-24T11:36:54.616Z,6.40
2023-03-24T11:37:57.430Z,5.80
2023-03-24T11:39:03.796Z,6.20
2023-03-24T11:40:12.283Z,6.70
2023-03-24T11:41:21.848Z,12.30
2023-03-24T11:42:27.756Z,7.30
2023-03-24T11:43:31.622Z,6.80
2023-03-24T11:44:53.364Z,6.10
2023-03-24T11:46:13.560Z,5.80
2023-03-24T11:47:38.544Z,7.50
2023-03-24T11:48:52.522Z,5.20
2023-03-24T11:50:10.412Z,9.00
2023-03-24T11:51:19.128Z,4.90
2023-03-24T11:52:31.500Z,8.10
2023-03-24T11:53:51.614Z,5.10
2023-03-24T11:54:54.514Z,6.20
2023-03-24T11:56:16.668Z,5.00
2023-03-24T11:57:35.586Z,7.50
2023-03-24T11:58:46.919Z,7.40
2023-03-24T11:59:58.281Z,5.10
2023-03-24T12:01:05.400Z,7.00
2023-03-24T12:02:08.108Z,10.10
2023-03-24T12:03:20.317Z,6.20
2023-03-24T12:04:44.394Z,6.20
2023-03-24T12:06:26.144Z,5.70
2023-03-24T12:07:50.042Z,7.00
2023-03-24T12:09:34.493Z,9.80
2023-03-24T12:11:16.737Z,7.20
2023-03-24T12:12:45.425Z,5.30
2023-03-24T12:13:52.062Z,5.90
2023-03-24T12:15:27.967Z,5.50
2023-03-24T12:16:42.036Z,4.20
2023-03-24T12:18:09.998Z,4.30
2023-03-24T12:19:44.162Z,8.30
2023-03-24T12:20:58.515Z,5.30
2023-03-24T12:22:13.283Z,5.40
2023-03-24T12:23:46.687Z,4.30
2023-03-24T12:25:08.136Z,6.20
2023-03-24T12:26:17.495Z,3.60
2023-03-24T12:27:36.512Z,5.10
2023-03-24T12:29:43.674Z,7.60
2023-03-24T12:31:11.998Z,5.80
2023-03-24T12:32:43.188Z,3.80
2023-03-24T12:34:36.505Z,4.30
2023-03-24T12:35:51.371Z,4.80
2023-03-24T12:36:54.263Z,3.50
2023-03-24T12:38:32.392Z,5.30
2023-03-24T12:39:44.951Z,7.90
2023-03-24T12:41:12.209Z,4.70
2023-03-24T12:42:21.016Z,5.40
2023-03-24T12:43:41.252Z,4.30
2023-03-24T12:44:46.833Z,3.80
2023-03-24T12:45:54.030Z,5.30
2023-03-24T12:46:56.757Z,6.40
2023-03-24T12:48:21.048Z,4.40
2023-03-24T12:49:23.880Z,6.50
2023-03-24T12:50:51.457Z,5.20
2023-03-24T12:52:16.710Z,4.10
2023-03-24T12:53:41.979Z,3.10
2023-03-24T12:54:50.473Z,4.00
2023-03-24T12:55:59.901Z,4.60
2023-03-24T12:57:10.592Z,3.60
2023-03-24T12:58:43.120Z,3.90
2023-03-24T12:59:57.725Z,3.00
2023-03-24T13:01:04.591Z,4.10
2023-03-24T13:02:28.636Z,4.40
2023-03-24T13:03:41.574Z,5.80
2023-03-24T13:04:48.445Z,4.00
2023-03-24T13:05:59.801Z,6.80
2023-03-24T13:07:12.655Z,5.10
2023-03-24T13:08:23.746Z,5.30
2023-03-24T13:09:47.710Z,3.00
2023-03-24T13:10:54.518Z,3.10
2023-03-24T13:12:07.991Z,3.60
2023-03-24T13:13:20.418Z,2.90
2023-03-24T13:14:31.309Z,7.30
2023-03-24T13:15:38.708Z,5.00
2023-03-24T13:16:45.035Z,4.20
2023-03-24T13:18:09.136Z,4.60
2023-03-24T13:19:24.189Z,3.70
2023-03-24T13:20:33.534Z,3.60
2023-03-24T13:21:37.789Z,4.80
2023-03-24T13:22:41.392Z,2.40
2023-03-24T13:23:54.948Z,3.40
2023-03-24T13:24:58.284Z,2.80
2023-03-24T13:26:25.830Z,3.50
2023-03-24T13:27:41.398Z,4.70
2023-03-24T13:28:56.371Z,2.40
2023-03-24T13:30:28.292Z,2.30
2023-03-24T13:31:56.932Z,3.80
2023-03-24T13:33:06.126Z,3.30
2023-03-24T13:34:21.103Z,2.70
2023-03-24T13:35:59.395Z,2.40
2023-03-24T13:37:15.507Z,3.20
2023-03-24T13:38:33.020Z,4.40
2023-03-24T13:39:36.450Z,4.80
2023-03-24T13:40:40.743Z,3.40
2023-03-24T13:41:53.059Z,2.10
2023-03-24T13:43:06.876Z,4.90
2023-03-24T13:44:20.511Z,2.70
2023-03-24T13:45:32.174Z,4.00
2023-03-24T13:46:41.658Z,4.40
2023-03-24T13:48:54.901Z,4.00
2023-03-24T13:50:04.255Z,5.10
2023-03-24T13:52:40.159Z,6.20
2023-03-24T13:53:51.943Z,2.60
2023-03-24T13:54:59.772Z,5.00
2023-03-24T13:56:05.731Z,3.90
2023-03-24T13:57:20.493Z,3.40
2023-03-24T13:58:28.349Z,6.20
2023-03-24T13:59:38.921Z,4.30
2023-03-24T14:01:09.719Z,5.30
2023-03-24T14:02:44.087Z,7.00
2023-03-24T14:05:23.956Z,3.40
2023-03-24T14:06:51.253Z,4.40
2023-03-24T14:08:03.105Z,2.10
2023-03-24T14:09:14.781Z,5.00
2023-03-24T14:10:19.134Z,10.70
2023-03-24T14:12:03.742Z,3.10
2023-03-24T14:13:12.598Z,4.60
2023-03-24T14:14:15.480Z,5.60
2023-03-24T14:15:30.020Z,3.70
2023-03-24T14:16:41.456Z,3.10
2023-03-24T14:17:49.819Z,2.50
2023-03-24T14:19:09.304Z,4.00
2023-03-24T14:21:28.570Z,5.50
2023-03-24T14:22:36.330Z,3.10
2023-03-24T14:23:48.202Z,5.80
2023-03-24T14:25:02.882Z,3.00
2023-03-24T14:26:34.382Z,2.70
2023-03-24T14:27:42.465Z,3.50
2023-03-24T14:28:50.396Z,2.50
2023-03-24T14:29:54.330Z,3.90
2023-03-24T14:31:13.347Z,4.20
2023-03-24T14:32:20.661Z,4.80
2023-03-24T14:33:25.920Z,3.80
2023-03-24T14:34:30.029Z,4.80
2023-03-24T14:35:32.772Z,5.60
2023-03-24T14:36:41.068Z,3.10
2023-03-24T14:37:52.090Z,2.30
2023-03-24T14:38:55.081Z,4.00
2023-03-24T14:39:58.935Z,2.50
2023-03-24T14:41:07.930Z,2.00
2023-03-24T14:42:33.704Z,4.90
2023-03-24T14:43:39.595Z,4.00
2023-03-24T14:45:27.674Z,2.50
2023-03-24T14:46:43.052Z,5.10
2023-03-24T14:47:46.026Z,3.10
2023-03-24T14:49:26.067Z,2.60
2023-03-24T14:50:29.083Z,2.30
2023-03-24T14:51:36.897Z,4.30
2023-03-24T14:52:51.205Z,3.90
2023-03-24T14:53:58.011Z,4.40
2023-03-24T14:55:06.010Z,2.80
2023-03-24T14:56:15.457Z,3.90
2023-03-24T14:58:39.566Z,3.20
2023-03-24T15:00:16.242Z,1.80
2023-03-24T15:01:20.408Z,5.70
2023-03-24T15:02:31.635Z,3.10
2023-03-24T15:03:39.356Z,5.70
2023-03-24T15:05:23.089Z,3.60
2023-03-24T15:06:26.209Z,3.00
2023-03-24T15:07:29.035Z,3.00
2023-03-24T15:08:31.771Z,7.00
2023-03-24T15:09:38.601Z,2.90
2023-03-24T15:11:04.783Z,6.30
2023-03-24T15:12:08.041Z,6.50
2023-03-24T15:13:40.381Z,2.10
2023-03-24T15:14:43.850Z,5.20
2023-03-24T15:15:47.774Z,4.80
2023-03-24T15:16:53.974Z,4.10
2023-03-24T15:17:56.849Z,5.50
2023-03-24T15:19:06.305Z,3.30
2023-03-24T15:20:21.782Z,2.80
2023-03-24T15:21:32.619Z,3.00
2023-03-24T15:22:41.630Z,5.60
2023-03-24T15:23:48.972Z,3.40
2023-03-24T15:24:52.427Z,8.60
2023-03-24T15:25:56.446Z,3.30
2023-03-24T15:27:06.590Z,4.00
2023-03-24T15:28:22.039Z,4.40
2023-03-24T15:29:25.689Z,4.10
2023-03-24T15:30:28.838Z,4.40
2023-03-24T15:31:32.600Z,5.80
2023-03-24T15:32:39.127Z,6.80
2023-03-24T15:33:43.410Z,5.20
2023-03-24T15:34:59.820Z,3.80
2023-03-24T15:36:04.065Z,4.00
2023-03-24T15:37:21.872Z,3.10
2023-03-24T15:38:30.724Z,5.40
2023-03-24T15:39:36.846Z,3.20
2023-03-24T15:40:41.700Z,7.40
2023-03-24T15:41:46.217Z,8.50
2023-03-24T15:42:49.240Z,4.40
2023-03-24T15:43:53.909Z,7.50
2023-03-24T15:45:11.947Z,6.10
2023-03-24T15:46:29.532Z,3.30
2023-03-24T15:47:37.128Z,3.90